Time;durP1;ratioP1;P1;durP2;ratioP2;P2;SDS_P1;SDS_P2;PMS_P1;PMS_P2;Temp;Humidity;BMP_temperature;BMP_pressure;BME280_temperature;BME280_humidity;BME280_pressure;Samples;Min_cycle;Max_cycle;Signal;HPM_P1;HPM_P2
2022/12/27 04:02:32;;;;;;;;;;;4.60;99.90;;;;;;5186972;23;19926;-73
2022/12/27 04:04:59;;;;;;;;;;;4.60;99.90;;;;;;4943989;29;20029;-74
2022/12/27 04:07:26;;;;;;;;;;;4.50;99.90;;;;;;4946400;28;20473;-73
2022/12/27 04:34:40;;;;;;;;;;;4.50;99.90;;;;;;4940707;29;19927;-74
2022/12/27 04:37:07;;;;;;;;;;;4.50;99.90;;;;;;4946683;29;19926;-74
2022/12/27 04:39:34;;;;;;;;;;;4.40;99.90;;;;;;4949897;28;19958;-75
2022/12/27 04:56:00;;;;;;;;;;;4.40;99.90;;;;;;4937396;29;19931;-74
2022/12/27 04:58:27;;;;;;;;;;;4.30;99.90;;;;;;4962785;28;19972;-76
2022/12/27 05:03:39;;;;;;;;;;;4.20;99.90;;;;;;4944971;29;20017;-74
2022/12/27 05:06:07;;;;;;;;;;;4.20;99.90;;;;;;4948082;29;19954;-74
2022/12/27 05:14:03;;;;;;;;;;;4.30;99.90;;;;;;4938460;29;20064;-74
2022/12/27 05:16:30;;;;;;;;;;;4.40;99.90;;;;;;4942620;29;20623;-73
2022/12/27 05:18:57;;;;;;;;;;;4.40;99.90;;;;;;4960608;28;19970;-74
2022/12/27 05:21:25;;;;;;;;;;;4.40;99.90;;;;;;4942233;28;19927;-74
2022/12/27 05:26:37;;;;;;;;;;;4.30;99.90;;;;;;4947232;29;19961;-75
2022/12/27 05:29:05;;;;;;;;;;;4.30;99.90;;;;;;4943839;29;19927;-72
2022/12/27 05:31:33;;;;;;;;;;;4.30;99.90;;;;;;4946731;29;19927;-74
2022/12/27 05:33:59;;;;;;;;;;;4.40;99.90;;;;;;4962041;28;19933;-73
2022/12/27 05:36:28;;;;;;;;;;;4.40;99.90;;;;;;4957601;28;19998;-74
2022/12/27 05:38:55;;;;;;;;;;;4.50;99.90;;;;;;4945746;29;20013;-74
2022/12/27 05:41:21;;;;;;;;;;;4.50;99.90;;;;;;4944796;29;19927;-74
2022/12/27 05:43:48;;;;;;;;;;;4.50;99.90;;;;;;4946257;29;19983;-74
2022/12/27 05:46:16;;;;;;;;;;;4.50;99.90;;;;;;4946439;29;19938;-74
2022/12/27 05:48:43;;;;;;;;;;;4.50;99.90;;;;;;4945159;28;19986;-73
2022/12/27 05:51:11;;;;;;;;;;;4.50;99.90;;;;;;4953472;28;20172;-74
2022/12/27 05:53:39;;;;;;;;;;;4.60;99.90;;;;;;4943740;29;19937;-73
2022/12/27 05:56:07;;;;;;;;;;;4.50;99.90;;;;;;4959272;28;19927;-74
2022/12/27 05:58:33;;;;;;;;;;;4.50;99.90;;;;;;4943157;29;19963;-72
2022/12/27 06:01:01;;;;;;;;;;;4.50;99.90;;;;;;4959618;28;19934;-74
2022/12/27 06:03:27;;;;;;;;;;;4.40;99.90;;;;;;4930468;29;19933;-74
2022/12/27 06:05:59;;;;;;;;;;;4.50;99.90;;;;;;4938425;29;19978;-75
2022/12/27 06:08:26;;;;;;;;;;;4.50;99.90;;;;;;4942339;29;20381;-74
2022/12/27 06:11:02;;;;;;;;;;;4.50;99.90;;;;;;4950786;28;19933;-75
2022/12/27 06:13:29;;;;;;;;;;;4.50;99.90;;;;;;4956684;28;20401;-73
2022/12/27 06:15:57;;;;;;;;;;;4.50;99.90;;;;;;4957619;28;19931;-73
2022/12/27 06:18:24;;;;;;;;;;;4.40;99.90;;;;;;4961131;28;19931;-73
2022/12/27 06:20:51;;;;;;;;;;;4.40;99.90;;;;;;4946685;28;19957;-75
2022/12/27 06:23:18;;;;;;;;;;;4.40;99.90;;;;;;4941439;29;19938;-73
2022/12/27 06:25:45;;;;;;;;;;;4.40;99.90;;;;;;4943232;29;19927;-73
2022/12/27 06:28:13;;;;;;;;;;;4.40;99.90;;;;;;4941524;29;19935;-74
2022/12/27 06:30:40;;;;;;;;;;;4.30;99.90;;;;;;4947796;29;19933;-74
2022/12/27 06:33:06;;;;;;;;;;;4.30;99.90;;;;;;4945517;28;20345;-73
2022/12/27 06:35:33;;;;;;;;;;;4.20;99.90;;;;;;4945474;28;19927;-74
2022/12/27 06:38:00;;;;;;;;;;;4.30;99.90;;;;;;4938846;29;19930;-74
2022/12/27 06:40:27;;;;;;;;;;;4.30;99.90;;;;;;4959446;28;20333;-74
2022/12/27 06:42:53;;;;;;;;;;;4.20;99.90;;;;;;4939252;29;19934;-72
2022/12/27 06:45:22;;;;;;;;;;;4.30;99.90;;;;;;4940769;29;19926;-74
2022/12/27 06:47:48;;;;;;;;;;;4.30;99.90;;;;;;4940682;29;19926;-73
2022/12/27 06:50:15;;;;;;;;;;;4.30;99.90;;;;;;4959839;28;19926;-73
2022/12/27 06:52:42;;;;;;;;;;;4.40;99.90;;;;;;4958595;28;19930;-73
2022/12/27 06:55:09;;;;;;;;;;;4.40;99.90;;;;;;4949778;29;19927;-74
2022/12/27 06:57:36;;;;;;;;;;;4.40;99.90;;;;;;4954926;28;20017;-73
2022/12/27 07:00:03;;;;;;;;;;;4.40;99.90;;;;;;4945048;29;19926;-74
2022/12/27 07:02:32;;;;;;;;;;;4.40;99.90;;;;;;4959979;28;19926;-74
2022/12/27 07:04:59;;;;;;;;;;;4.50;99.90;;;;;;4943773;29;19938;-72
2022/12/27 07:07:25;;;;;;;;;;;4.50;99.90;;;;;;4936922;29;19926;-74
2022/12/27 07:09:52;;;;;;;;;;;4.50;99.90;;;;;;4937918;29;19934;-75
2022/12/27 07:12:19;;;;;;;;;;;4.50;99.90;;;;;;4957316;28;19934;-73
2022/12/27 07:14:46;;;;;;;;;;;4.50;99.90;;;;;;4957326;28;19934;-73
2022/12/27 07:17:12;;;;;;;;;;;4.40;99.90;;;;;;4939667;29;19930;-73
2022/12/27 07:19:41;;;;;;;;;;;4.40;99.90;;;;;;4935720;29;19926;-73
2022/12/27 07:22:08;;;;;;;;;;;4.40;99.90;;;;;;4943486;29;19926;-74
2022/12/27 07:24:34;;;;;;;;;;;4.40;99.90;;;;;;4936986;29;19927;-74
2022/12/27 07:27:01;;;;;;;;;;;4.40;99.90;;;;;;4956206;28;20302;-75
2022/12/27 07:29:29;;;;;;;;;;;4.40;99.90;;;;;;4947066;29;19926;-73
2022/12/27 07:31:57;;;;;;;;;;;4.40;99.90;;;;;;4959713;28;19966;-75
2022/12/27 07:34:26;;;;;;;;;;;4.40;99.90;;;;;;4955006;28;19934;-74
2022/12/27 07:36:54;;;;;;;;;;;4.40;99.90;;;;;;4940812;29;20416;-74
2022/12/27 07:39:21;;;;;;;;;;;4.40;99.90;;;;;;4943746;29;20318;-74
2022/12/27 07:41:47;;;;;;;;;;;4.30;99.90;;;;;;4955261;28;19926;-73
2022/12/27 07:44:14;;;;;;;;;;;4.40;99.90;;;;;;4957790;28;19930;-73
2022/12/27 07:46:41;;;;;;;;;;;4.40;99.90;;;;;;4955342;28;19934;-75
2022/12/27 07:49:09;;;;;;;;;;;4.30;99.90;;;;;;4958433;28;19926;-73
2022/12/27 07:51:36;;;;;;;;;;;4.40;99.90;;;;;;4941817;29;19927;-74
2022/12/27 07:54:06;;;;;;;;;;;4.40;99.90;;;;;;4953867;28;19982;-73
2022/12/27 07:56:32;;;;;;;;;;;4.50;99.90;;;;;;4939089;29;19931;-74
2022/12/27 07:59:00;;;;;;;;;;;4.50;99.90;;;;;;4958377;28;19927;-75
2022/12/27 08:02:02;;;;;;;;;;;4.50;99.90;;;;;;4959762;28;19933;-74
2022/12/27 08:04:16;;;;;;;;;;;4.60;99.90;;;;;;4952367;28;19935;-73
2022/12/27 08:06:43;;;;;;;;;;;4.60;99.90;;;;;;4944318;29;19938;-73
2022/12/27 08:09:13;;;;;;;;;;;4.60;99.90;;;;;;4938762;29;19930;-73
2022/12/27 08:11:40;;;;;;;;;;;4.60;99.90;;;;;;4944960;29;20399;-73
2022/12/27 08:14:07;;;;;;;;;;;4.60;99.90;;;;;;4941793;29;19997;-74
2022/12/27 08:16:33;;;;;;;;;;;4.60;99.90;;;;;;4943405;29;19983;-74
2022/12/27 08:19:00;;;;;;;;;;;4.60;99.90;;;;;;4958693;28;19927;-72
2022/12/27 08:21:27;;;;;;;;;;;4.60;99.90;;;;;;4961377;28;19927;-74
2022/12/27 08:23:54;;;;;;;;;;;4.60;99.90;;;;;;4942709;29;19941;-73
2022/12/27 08:26:23;;;;;;;;;;;4.60;99.90;;;;;;4944063;29;19931;-73
2022/12/27 08:28:49;;;;;;;;;;;4.60;99.90;;;;;;4958472;28;19927;-71
2022/12/27 08:31:16;;;;;;;;;;;4.70;99.90;;;;;;4947848;29;19940;-73
2022/12/27 08:33:43;;;;;;;;;;;4.70;99.90;;;;;;4947598;29;19934;-75
2022/12/27 08:36:11;;;;;;;;;;;4.70;99.90;;;;;;4959447;28;19931;-74
2022/12/27 08:38:37;;;;;;;;;;;4.70;99.90;;;;;;4948939;28;19989;-74
2022/12/27 08:41:04;;;;;;;;;;;4.70;99.90;;;;;;4947598;29;19931;-71
2022/12/27 08:43:33;;;;;;;;;;;4.80;99.90;;;;;;4949261;29;19933;-73
2022/12/27 08:46:00;;;;;;;;;;;4.80;99.90;;;;;;4943249;29;19978;-74
2022/12/27 08:48:27;;;;;;;;;;;4.80;99.90;;;;;;4943823;29;19927;-74
2022/12/27 08:50:53;;;;;;;;;;;4.80;99.90;;;;;;4942755;29;19937;-74
2022/12/27 08:53:20;;;;;;;;;;;4.90;99.90;;;;;;4958682;28;19926;-75
2022/12/27 08:55:47;;;;;;;;;;;4.90;99.90;;;;;;4946971;29;19938;-75
2022/12/27 08:58:14;;;;;;;;;;;4.90;99.90;;;;;;4947779;29;20398;-73
2022/12/27 09:00:42;;;;;;;;;;;5.00;99.90;;;;;;4946530;29;19933;-74
2022/12/27 09:03:09;;;;;;;;;;;5.20;99.90;;;;;;4942443;29;20317;-74
2022/12/27 09:05:36;;;;;;;;;;;5.30;99.90;;;;;;4947138;29;19926;-73
2022/12/27 09:08:04;;;;;;;;;;;5.30;99.90;;;;;;4965778;28;20349;-74
2022/12/27 09:10:31;;;;;;;;;;;5.30;99.90;;;;;;4939741;29;19926;-74
2022/12/27 09:12:57;;;;;;;;;;;5.40;99.90;;;;;;4959297;28;19927;-74
2022/12/27 09:15:24;;;;;;;;;;;5.40;99.90;;;;;;4939580;29;19934;-76
2022/12/27 09:17:52;;;;;;;;;;;5.60;99.90;;;;;;4943938;29;19930;-74
2022/12/27 09:20:19;;;;;;;;;;;5.60;99.90;;;;;;4953737;28;19927;-74
2022/12/27 09:22:46;;;;;;;;;;;5.70;99.90;;;;;;4956221;28;19934;-74
2022/12/27 09:25:13;;;;;;;;;;;5.80;99.90;;;;;;4962176;28;19931;-76
2022/12/27 09:27:39;;;;;;;;;;;5.70;99.90;;;;;;4955150;28;19935;-74
2022/12/27 09:30:07;;;;;;;;;;;5.80;99.90;;;;;;4943703;29;19942;-74
2022/12/27 09:32:34;;;;;;;;;;;5.90;99.90;;;;;;4944456;28;19942;-74
2022/12/27 09:35:03;;;;;;;;;;;6.00;99.90;;;;;;4960471;28;19927;-74
2022/12/27 09:37:31;;;;;;;;;;;6.10;99.90;;;;;;4959599;28;19935;-74
2022/12/27 09:39:57;;;;;;;;;;;6.20;99.90;;;;;;4945770;29;19930;-73
2022/12/27 09:42:32;;;;;;;;;;;6.20;99.90;;;;;;4941213;29;20409;-74
2022/12/27 09:45:03;;;;;;;;;;;6.30;99.90;;;;;;4946779;29;19934;-74
2022/12/27 09:47:33;;;;;;;;;;;6.40;99.90;;;;;;4958914;28;19927;-75
2022/12/27 09:50:03;;;;;;;;;;;6.50;99.90;;;;;;4959935;28;19927;-74
2022/12/27 09:52:33;;;;;;;;;;;6.60;99.90;;;;;;4942212;29;20417;-74
2022/12/27 09:55:03;;;;;;;;;;;6.70;99.90;;;;;;4956912;28;19934;-74
2022/12/27 09:57:34;;;;;;;;;;;6.70;99.90;;;;;;4946094;29;19927;-74
2022/12/27 10:00:04;;;;;;;;;;;6.80;99.90;;;;;;4945627;29;19926;-74
2022/12/27 10:02:33;;;;;;;;;;;6.90;99.90;;;;;;4948981;29;19962;-74
2022/12/27 10:05:00;;;;;;;;;;;6.90;99.90;;;;;;4945580;29;20361;-74
2022/12/27 10:07:32;;;;;;;;;;;6.90;99.90;;;;;;4961595;28;19926;-74
2022/12/27 10:10:04;;;;;;;;;;;7.00;99.90;;;;;;4941629;29;19927;-71
2022/12/27 10:12:40;;;;;;;;;;;7.10;99.90;;;;;;4944986;29;19926;-74
2022/12/27 10:15:14;;;;;;;;;;;7.20;99.90;;;;;;4940822;29;19933;-73
2022/12/27 10:17:48;;;;;;;;;;;7.30;99.90;;;;;;4955590;28;19937;-73
2022/12/27 10:20:18;;;;;;;;;;;7.40;99.90;;;;;;4944260;29;19990;-73
2022/12/27 10:22:48;;;;;;;;;;;7.60;99.90;;;;;;4943982;29;19927;-74
2022/12/27 10:25:18;;;;;;;;;;;7.60;99.90;;;;;;4959147;28;19942;-74
2022/12/27 10:27:45;;;;;;;;;;;7.90;99.90;;;;;;4961992;28;20461;-74
2022/12/27 10:30:14;;;;;;;;;;;10.90;99.90;;;;;;4958798;28;19937;-73
2022/12/27 10:32:42;;;;;;;;;;;13.70;99.90;;;;;;4954141;28;19950;-74
2022/12/27 10:35:13;;;;;;;;;;;14.60;99.90;;;;;;4943589;29;20290;-73
2022/12/27 10:37:40;;;;;;;;;;;15.50;99.90;;;;;;4959313;28;19927;-73
2022/12/27 10:40:11;;;;;;;;;;;16.40;99.90;;;;;;4943217;29;20009;-73
2022/12/27 10:42:40;;;;;;;;;;;17.50;99.90;;;;;;4944777;28;19926;-73
2022/12/27 10:45:26;;;;;;;;;;;17.70;99.90;;;;;;4956221;28;19930;-73
2022/12/27 10:47:53;;;;;;;;;;;14.90;99.90;;;;;;4937483;29;20449;-74
2022/12/27 10:50:22;;;;;;;;;;;12.80;99.90;;;;;;4940601;29;19934;-76
2022/12/27 10:52:49;;;;;;;;;;;11.60;99.90;;;;;;4944051;29;19949;-72
2022/12/27 10:55:31;;;;;;;;;;;12.70;99.90;;;;;;4959941;28;19933;-75
2022/12/27 10:57:57;;;;;;;;;;;11.00;99.90;;;;;;4937660;29;19927;-74
2022/12/27 11:00:24;;;;;;;;;;;10.00;99.90;;;;;;4961500;28;19926;-74
2022/12/27 11:02:52;;;;;;;;;;;8.80;99.90;;;;;;4958620;28;20382;-74
2022/12/27 11:05:23;;;;;;;;;;;8.20;99.90;;;;;;4956237;28;19934;-74
2022/12/27 11:07:50;;;;;;;;;;;7.90;99.90;;;;;;4953400;28;19927;-74
2022/12/27 11:10:18;;;;;;;;;;;7.80;99.90;;;;;;4939909;29;19993;-76
2022/12/27 11:13:00;;;;;;;;;;;7.80;99.90;;;;;;4939830;29;20408;-73
2022/12/27 11:15:28;;;;;;;;;;;7.80;99.90;;;;;;4957717;28;20009;-74
2022/12/27 11:17:57;;;;;;;;;;;7.90;99.90;;;;;;4957010;28;19934;-74
2022/12/27 11:20:26;;;;;;;;;;;8.50;99.90;;;;;;4939388;29;19934;-75
2022/12/27 11:22:54;;;;;;;;;;;10.30;99.90;;;;;;4936805;29;19926;-74
2022/12/27 11:25:21;;;;;;;;;;;12.30;99.90;;;;;;4932205;29;19930;-75
2022/12/27 11:27:50;;;;;;;;;;;14.70;99.90;;;;;;4955644;28;19934;-73
2022/12/27 11:30:27;;;;;;;;;;;16.20;99.90;;;;;;4955563;28;19938;-71
2022/12/27 11:32:54;;;;;;;;;;;16.90;99.90;;;;;;4949090;28;19942;-74
2022/12/27 11:35:22;;;;;;;;;;;16.70;99.90;;;;;;4960357;28;19934;-72
2022/12/27 11:37:50;;;;;;;;;;;14.70;99.90;;;;;;4957314;28;19927;-73
2022/12/27 11:40:23;;;;;;;;;;;14.90;99.90;;;;;;4942650;29;19938;-72
2022/12/27 11:42:51;;;;;;;;;;;14.30;99.90;;;;;;4936893;29;19927;-73
2022/12/27 11:45:22;;;;;;;;;;;13.40;99.90;;;;;;4940795;29;19927;-73
2022/12/27 11:47:53;;;;;;;;;;;12.40;99.90;;;;;;4938695;29;20143;-72
2022/12/27 11:50:24;;;;;;;;;;;12.10;99.90;;;;;;4935959;29;19955;-75
2022/12/27 11:52:58;;;;;;;;;;;11.20;99.90;;;;;;4951856;28;20355;-75
2022/12/27 11:55:40;;;;;;;;;;;11.40;99.90;;;;;;4954765;28;19934;-72
2022/12/27 11:58:17;;;;;;;;;;;12.10;99.90;;;;;;4944565;29;19931;-72
2022/12/27 12:00:47;;;;;;;;;;;12.30;99.90;;;;;;4960256;28;19981;-75
2022/12/27 12:03:35;;;;;;;;;;;12.40;99.90;;;;;;4937997;29;19927;-75
2022/12/27 12:06:06;;;;;;;;;;;12.40;99.90;;;;;;4927314;29;19927;-75
2022/12/27 12:08:51;;;;;;;;;;;11.30;99.90;;;;;;4956399;28;19927;-75
2022/12/27 12:11:25;;;;;;;;;;;10.50;99.90;;;;;;4933851;29;20394;-75
2022/12/27 12:14:09;;;;;;;;;;;11.20;99.90;;;;;;4956848;28;19930;-74
2022/12/27 12:16:50;;;;;;;;;;;11.20;99.90;;;;;;4941240;29;19934;-75
2022/12/27 12:19:28;;;;;;;;;;;11.60;99.90;;;;;;4959692;28;20342;-75
2022/12/27 12:22:03;;;;;;;;;;;13.00;99.90;;;;;;4956749;28;19981;-75
2022/12/27 12:24:37;;;;;;;;;;;12.70;99.90;;;;;;4939679;29;19927;-75
2022/12/27 12:27:10;;;;;;;;;;;12.80;99.90;;;;;;4958225;28;20021;-75
2022/12/27 12:29:45;;;;;;;;;;;13.00;99.90;;;;;;4960991;28;19930;-74
2022/12/27 12:32:19;;;;;;;;;;;13.20;99.90;;;;;;4959300;28;19926;-77
2022/12/27 12:34:51;;;;;;;;;;;13.20;99.90;;;;;;4961923;28;19934;-74
2022/12/27 12:37:23;;;;;;;;;;;12.70;99.90;;;;;;4958963;28;19937;-73
2022/12/27 12:39:57;;;;;;;;;;;11.50;99.90;;;;;;4966421;28;20358;-74
2022/12/27 12:42:30;;;;;;;;;;;12.20;99.90;;;;;;4956361;28;19933;-75
2022/12/27 12:45:19;;;;;;;;;;;12.20;99.90;;;;;;4943810;29;19934;-76
2022/12/27 12:47:55;;;;;;;;;;;12.60;99.90;;;;;;4947877;29;19927;-73
2022/12/27 12:50:28;;;;;;;;;;;13.80;99.90;;;;;;4954227;28;19926;-72
2022/12/27 12:53:11;;;;;;;;;;;13.80;99.90;;;;;;4957673;28;19934;-73
2022/12/27 12:55:42;;;;;;;;;;;14.90;99.90;;;;;;4942559;29;19931;-74
2022/12/27 12:58:20;;;;;;;;;;;14.00;99.90;;;;;;4962650;28;19927;-72
2022/12/27 13:00:54;;;;;;;;;;;13.40;99.90;;;;;;4943866;29;19972;-73
2022/12/27 13:03:33;;;;;;;;;;;13.30;99.90;;;;;;4952491;28;19934;-73
2022/12/27 13:06:04;;;;;;;;;;;13.30;99.90;;;;;;4955972;28;19926;-73
2022/12/27 13:08:35;;;;;;;;;;;14.30;99.90;;;;;;4941363;29;19931;-73
2022/12/27 13:11:18;;;;;;;;;;;13.10;99.90;;;;;;4951448;28;19933;-72
2022/12/27 13:13:53;;;;;;;;;;;11.80;99.90;;;;;;4943961;29;20034;-75
2022/12/27 13:16:28;;;;;;;;;;;10.80;99.90;;;;;;4962432;28;19926;-76
2022/12/27 13:19:00;;;;;;;;;;;10.70;99.90;;;;;;4943021;29;19927;-75
2022/12/27 13:21:36;;;;;;;;;;;10.60;99.90;;;;;;4961854;28;19934;-75
2022/12/27 13:24:11;;;;;;;;;;;10.50;99.90;;;;;;4960068;28;19934;-74
2022/12/27 13:26:42;;;;;;;;;;;11.00;99.90;;;;;;4941495;29;19930;-75
2022/12/27 13:29:24;;;;;;;;;;;12.30;99.90;;;;;;4955544;28;19942;-75
2022/12/27 13:31:55;;;;;;;;;;;13.70;99.90;;;;;;4958695;28;20405;-76
2022/12/27 13:34:29;;;;;;;;;;;14.30;99.90;;;;;;4964744;28;19994;-76
2022/12/27 13:37:04;;;;;;;;;;;14.60;99.90;;;;;;4950225;28;19926;-73
2022/12/27 13:39:38;;;;;;;;;;;14.50;99.90;;;;;;4961632;28;19926;-72
2022/12/27 13:42:21;;;;;;;;;;;13.80;99.90;;;;;;4938142;29;19974;-77
2022/12/27 13:44:55;;;;;;;;;;;12.60;99.90;;;;;;4938168;29;19970;-73
2022/12/27 13:47:37;;;;;;;;;;;11.60;99.90;;;;;;4956841;28;19927;-72
2022/12/27 13:50:17;;;;;;;;;;;11.10;99.90;;;;;;4943274;29;19982;-73
2022/12/27 13:52:53;;;;;;;;;;;10.80;99.90;;;;;;4959105;28;19927;-71
2022/12/27 13:55:37;;;;;;;;;;;10.50;99.90;;;;;;4949883;28;19930;-72
2022/12/27 13:58:19;;;;;;;;;;;10.30;99.90;;;;;;4942088;29;20402;-71
2022/12/27 14:00:48;;;;;;;;;;;10.10;99.90;;;;;;4915301;29;19930;-72
2022/12/27 14:03:48;;;;;;;;;;;9.70;99.90;;;;;;4938321;29;19927;-71
2022/12/27 14:06:33;;;;;;;;;;;9.60;99.90;;;;;;4942662;29;19938;-72
2022/12/27 14:09:24;;;;;;;;;;;9.40;99.90;;;;;;4935720;29;19927;-72
2022/12/27 14:12:01;;;;;;;;;;;9.20;99.90;;;;;;4943251;29;19931;-72
2022/12/27 14:14:29;;;;;;;;;;;9.20;99.90;;;;;;4940413;29;19934;-72
2022/12/27 14:17:05;;;;;;;;;;;9.00;99.90;;;;;;4963067;28;19930;-72
2022/12/27 14:19:43;;;;;;;;;;;9.00;99.90;;;;;;4939465;29;19927;-73
2022/12/27 14:22:20;;;;;;;;;;;8.90;99.90;;;;;;4946240;28;19935;-72
2022/12/27 14:25:04;;;;;;;;;;;8.80;99.90;;;;;;4961721;28;19926;-72
2022/12/27 14:27:45;;;;;;;;;;;8.70;99.90;;;;;;4961855;28;19927;-71
2022/12/27 14:30:31;;;;;;;;;;;8.60;99.90;;;;;;4940004;29;19934;-72
2022/12/27 14:33:16;;;;;;;;;;;8.60;99.90;;;;;;4963884;28;19937;-72
2022/12/27 14:36:16;;;;;;;;;;;8.50;99.90;;;;;;4942419;29;19949;-72
2022/12/27 14:39:04;;;;;;;;;;;8.50;99.90;;;;;;4872144;29;20010;-70
2022/12/27 14:41:49;;;;;;;;;;;8.50;99.90;;;;;;4871700;29;19983;-71
2022/12/27 14:44:37;;;;;;;;;;;8.50;99.90;;;;;;4912343;29;19927;-72
2022/12/27 14:47:22;;;;;;;;;;;8.50;99.90;;;;;;4925651;28;19926;-70
2022/12/27 14:53:00;;;;;;;;;;;8.40;99.90;;;;;;5108460;27;19923;-71
2022/12/27 14:55:44;;;;;;;;;;;8.40;99.90;;;;;;5084045;28;20454;-73
2022/12/27 14:58:20;;;;;;;;;;;8.40;99.90;;;;;;5096664;28;19924;-71
2022/12/27 15:01:07;;;;;;;;;;;8.40;99.90;;;;;;5084479;28;19925;-72
2022/12/27 15:03:48;;;;;;;;;;;8.40;99.90;;;;;;5075687;28;20031;-70
2022/12/27 15:06:18;;;;;;;;;;;8.30;99.90;;;;;;5099961;28;19978;-72
2022/12/27 15:08:48;;;;;;;;;;;8.30;99.90;;;;;;5094941;28;19925;-71
2022/12/27 15:11:27;;;;;;;;;;;8.30;99.90;;;;;;5097907;28;20035;-70
2022/12/27 15:14:00;;;;;;;;;;;8.20;99.90;;;;;;5101150;28;19956;-71
2022/12/27 15:16:33;;;;;;;;;;;8.30;99.90;;;;;;5092780;28;19924;-71
2022/12/27 15:19:06;;;;;;;;;;;8.30;99.90;;;;;;5096920;28;19931;-69
2022/12/27 15:21:42;;;;;;;;;;;8.40;99.90;;;;;;5099528;28;19924;-71
2022/12/27 15:24:13;;;;;;;;;;;8.40;99.90;;;;;;5094239;28;19970;-71
2022/12/27 15:26:47;;;;;;;;;;;8.40;99.90;;;;;;5097165;28;19924;-72
2022/12/27 15:29:19;;;;;;;;;;;8.30;99.90;;;;;;5099901;28;19947;-71
2022/12/27 15:31:52;;;;;;;;;;;8.20;99.90;;;;;;5092225;28;19940;-70
2022/12/27 15:34:29;;;;;;;;;;;8.10;99.90;;;;;;5102438;28;19998;-71
2022/12/27 15:36:56;;;;;;;;;;;8.00;99.90;;;;;;5092410;28;19963;-71
2022/12/27 15:39:42;;;;;;;;;;;8.00;99.90;;;;;;5098466;28;20382;-75
2022/12/27 15:42:20;;;;;;;;;;;7.90;99.90;;;;;;5098084;28;19931;-72
2022/12/27 15:44:51;;;;;;;;;;;7.90;99.90;;;;;;5091128;28;19925;-75
2022/12/27 15:47:29;;;;;;;;;;;7.80;99.90;;;;;;5103911;28;20325;-74
2022/12/27 15:50:09;;;;;;;;;;;7.70;99.90;;;;;;5096014;28;19931;-74
2022/12/27 15:52:44;;;;;;;;;;;7.70;99.90;;;;;;5096342;22;19928;-66
2022/12/27 15:55:16;;;;;;;;;;;7.60;99.90;;;;;;5058488;28;19929;-67
2022/12/27 15:57:54;;;;;;;;;;;7.50;99.90;;;;;;5066502;28;19972;-67
2022/12/27 16:00:26;;;;;;;;;;;7.40;99.90;;;;;;5078206;28;20398;-68
2022/12/27 16:02:53;;;;;;;;;;;7.40;99.90;;;;;;5066502;28;19932;-68
2022/12/27 16:05:35;;;;;;;;;;;7.40;99.90;;;;;;5053174;28;19933;-68
2022/12/27 16:08:20;;;;;;;;;;;7.30;99.90;;;;;;5049811;28;19940;-68
2022/12/27 16:10:49;;;;;;;;;;;7.30;99.90;;;;;;5049239;28;19992;-67
2022/12/27 16:13:35;;;;;;;;;;;7.20;99.90;;;;;;5052962;28;19932;-66
2022/12/27 16:16:02;;;;;;;;;;;7.20;99.90;;;;;;5069828;28;19932;-67
2022/12/27 16:18:38;;;;;;;;;;;7.20;99.90;;;;;;5069394;28;19952;-67
2022/12/27 16:21:06;;;;;;;;;;;7.10;99.90;;;;;;5049207;28;19925;-66
2022/12/27 16:23:35;;;;;;;;;;;7.00;99.90;;;;;;5058766;28;19924;-74
2022/12/27 16:26:03;;;;;;;;;;;7.00;99.90;;;;;;5053002;28;19924;-67
2022/12/27 16:28:31;;;;;;;;;;;7.00;99.90;;;;;;5050348;28;19932;-67
2022/12/27 16:31:00;;;;;;;;;;;6.90;99.90;;;;;;5052653;28;19956;-68
2022/12/27 16:33:36;;;;;;;;;;;6.90;99.90;;;;;;5052443;28;19929;-68
2022/12/27 16:36:17;;;;;;;;;;;6.90;99.90;;;;;;5069515;28;19980;-67
2022/12/27 16:38:46;;;;;;;;;;;6.80;99.90;;;;;;5048922;28;19925;-67
2022/12/27 16:41:14;;;;;;;;;;;6.70;99.90;;;;;;5049987;28;19925;-67
2022/12/27 16:43:47;;;;;;;;;;;6.70;99.90;;;;;;5061219;28;19925;-67
2022/12/27 16:46:28;;;;;;;;;;;6.70;99.90;;;;;;5057172;28;19954;-68
2022/12/27 16:49:01;;;;;;;;;;;6.70;99.90;;;;;;5040764;28;19925;-66
2022/12/27 16:51:33;;;;;;;;;;;6.70;99.90;;;;;;5044464;28;19935;-67
2022/12/27 16:54:05;;;;;;;;;;;6.60;99.90;;;;;;5077968;28;19936;-67
2022/12/27 16:56:32;;;;;;;;;;;6.50;99.90;;;;;;5060420;28;20422;-66
2022/12/27 16:58:59;;;;;;;;;;;6.50;99.90;;;;;;5051974;28;19932;-66
2022/12/27 17:01:52;;;;;;;;;;;6.50;99.90;;;;;;5054859;28;19925;-68
2022/12/27 17:04:38;;;;;;;;;;;6.50;99.90;;;;;;5064128;28;19960;-67
2022/12/27 17:07:05;;;;;;;;;;;6.50;99.90;;;;;;5068829;28;19925;-65
2022/12/27 17:09:42;;;;;;;;;;;6.50;99.90;;;;;;5062334;28;19928;-67
2022/12/27 17:12:19;;;;;;;;;;;6.50;99.90;;;;;;5049413;28;19925;-68
2022/12/27 17:14:46;;;;;;;;;;;6.50;99.90;;;;;;5053360;28;19929;-68
2022/12/27 17:17:17;;;;;;;;;;;6.50;99.90;;;;;;5048430;28;19924;-68
2022/12/27 17:19:45;;;;;;;;;;;6.40;99.90;;;;;;5069600;28;19925;-67
2022/12/27 17:22:14;;;;;;;;;;;6.50;99.90;;;;;;5047457;28;20338;-68
2022/12/27 17:24:40;;;;;;;;;;;6.50;99.90;;;;;;5052748;28;20329;-67
2022/12/27 17:27:12;;;;;;;;;;;6.50;99.90;;;;;;5062045;28;19924;-67
2022/12/27 17:29:47;;;;;;;;;;;6.40;99.90;;;;;;5064565;28;19929;-68
2022/12/27 17:32:25;;;;;;;;;;;6.40;99.90;;;;;;5068838;28;19971;-68
2022/12/27 17:34:55;;;;;;;;;;;6.30;99.90;;;;;;5065259;28;19978;-67
2022/12/27 17:37:26;;;;;;;;;;;6.30;99.90;;;;;;5073112;28;19929;-66
2022/12/27 17:40:05;;;;;;;;;;;6.30;99.90;;;;;;5054707;28;19924;-67
2022/12/27 17:45:23;;;;;;;;;;;6.30;99.90;;;;;;5079877;28;20049;-68
2022/12/27 17:47:57;;;;;;;;;;;6.30;99.90;;;;;;5052492;28;19924;-68
2022/12/27 17:50:25;;;;;;;;;;;6.30;99.90;;;;;;5062082;28;19981;-69
2022/12/27 17:58:42;;;;;;;;;;;6.30;99.90;;;;;;5066773;28;20349;-69
2022/12/27 18:01:09;;;;;;;;;;;6.20;99.90;;;;;;5077643;28;19956;-68
2022/12/27 18:03:41;;;;;;;;;;;6.20;99.90;;;;;;5050447;28;20276;-69
2022/12/27 18:06:08;;;;;;;;;;;6.20;99.90;;;;;;5049711;28;19931;-68
2022/12/27 18:08:35;;;;;;;;;;;6.10;99.90;;;;;;5054038;28;19925;-68
2022/12/27 18:11:03;;;;;;;;;;;6.10;99.90;;;;;;5050224;28;19977;-67
2022/12/27 18:13:32;;;;;;;;;;;6.00;99.90;;;;;;5063098;28;19971;-68
2022/12/27 18:16:12;;;;;;;;;;;6.00;99.90;;;;;;5064201;28;19924;-67
2022/12/27 18:18:41;;;;;;;;;;;6.00;99.90;;;;;;5052186;28;19974;-68
2022/12/27 18:21:20;;;;;;;;;;;5.90;99.90;;;;;;5060585;28;19925;-67
2022/12/27 18:23:47;;;;;;;;;;;5.90;99.90;;;;;;5053050;28;19924;-68
2022/12/27 18:26:15;;;;;;;;;;;5.90;99.90;;;;;;5053486;28;19933;-68
2022/12/27 18:28:43;;;;;;;;;;;5.90;99.90;;;;;;5048200;28;19925;-68
2022/12/27 18:31:13;;;;;;;;;;;5.80;99.90;;;;;;5045522;28;19925;-65
2022/12/27 18:33:42;;;;;;;;;;;5.80;99.90;;;;;;5077454;28;19924;-68
2022/12/27 18:36:11;;;;;;;;;;;5.90;99.90;;;;;;5065592;28;19924;-67
2022/12/27 18:38:39;;;;;;;;;;;5.80;99.90;;;;;;5073353;28;20268;-67
2022/12/27 18:41:08;;;;;;;;;;;5.80;99.90;;;;;;5052812;28;20353;-65
2022/12/27 18:43:35;;;;;;;;;;;5.80;99.90;;;;;;5042130;28;19932;-67
2022/12/27 18:46:03;;;;;;;;;;;5.70;99.90;;;;;;5050666;28;19990;-67
2022/12/27 18:48:33;;;;;;;;;;;5.70;99.90;;;;;;5058693;28;20009;-67
2022/12/27 18:51:01;;;;;;;;;;;5.60;99.90;;;;;;5051757;28;19924;-67
2022/12/27 18:53:31;;;;;;;;;;;5.60;99.90;;;;;;5052327;28;19970;-67
2022/12/27 18:55:59;;;;;;;;;;;5.50;99.90;;;;;;5051102;28;19924;-68
2022/12/27 18:58:26;;;;;;;;;;;5.40;99.90;;;;;;5048149;28;20306;-67
2022/12/27 19:00:56;;;;;;;;;;;5.40;99.90;;;;;;5050616;28;19925;-65
2022/12/27 19:03:22;;;;;;;;;;;5.40;99.90;;;;;;5069823;28;20378;-67
2022/12/27 19:06:01;;;;;;;;;;;5.40;99.90;;;;;;5049874;28;19924;-67
2022/12/27 19:08:31;;;;;;;;;;;5.40;99.90;;;;;;5068090;28;20287;-68
2022/12/27 19:10:58;;;;;;;;;;;5.40;99.90;;;;;;5040116;28;19925;-68
2022/12/27 19:13:26;;;;;;;;;;;5.50;99.90;;;;;;5059275;28;19924;-68
2022/12/27 19:15:53;;;;;;;;;;;5.40;99.90;;;;;;5044483;28;19925;-68
2022/12/27 19:18:22;;;;;;;;;;;5.40;99.90;;;;;;5066279;28;19939;-68
2022/12/27 19:20:54;;;;;;;;;;;5.30;99.90;;;;;;5070010;28;19946;-68
2022/12/27 19:23:27;;;;;;;;;;;5.30;99.90;;;;;;5064534;28;19925;-67
2022/12/27 19:25:58;;;;;;;;;;;5.30;99.90;;;;;;5053615;28;20294;-68
2022/12/27 19:28:26;;;;;;;;;;;5.30;99.90;;;;;;5050071;28;19925;-67
2022/12/27 19:31:05;;;;;;;;;;;5.30;99.90;;;;;;5070077;28;20019;-67
2022/12/27 19:33:34;;;;;;;;;;;5.40;99.90;;;;;;5047718;28;19929;-67
2022/12/27 19:36:01;;;;;;;;;;;5.40;99.90;;;;;;5066533;28;19965;-67
2022/12/27 19:38:31;;;;;;;;;;;5.40;99.90;;;;;;5063539;28;19931;-67
2022/12/27 19:41:00;;;;;;;;;;;5.40;99.90;;;;;;5054567;28;19925;-66
2022/12/27 19:43:27;;;;;;;;;;;5.30;99.90;;;;;;5068115;28;19924;-68
2022/12/27 19:45:54;;;;;;;;;;;5.40;99.90;;;;;;5057003;28;19929;-68
2022/12/27 19:48:21;;;;;;;;;;;5.30;99.90;;;;;;5072725;28;20023;-68
2022/12/27 19:50:49;;;;;;;;;;;5.30;99.90;;;;;;5065250;28;19931;-68
2022/12/27 19:53:16;;;;;;;;;;;5.30;99.90;;;;;;5072129;28;19936;-69